createdAt,value
2019-02-21T00:02:16.238Z,76.97
2019-02-21T00:04:45.002Z,77.16
2019-02-21T00:07:13.509Z,77.49
2019-02-21T00:09:41.960Z,77.77
2019-02-21T00:12:10.415Z,77.94
2019-02-21T00:14:38.905Z,78.05
2019-02-21T00:17:07.386Z,78.24
2019-02-21T00:19:35.849Z,78.48
2019-02-21T00:22:04.346Z,78.44
2019-02-21T00:24:32.800Z,78.55
2019-02-21T00:27:01.264Z,78.50
2019-02-21T00:29:29.772Z,78.43
2019-02-21T00:31:58.221Z,78.31
2019-02-21T00:34:26.693Z,78.40
2019-02-21T00:36:55.176Z,78.19
2019-02-21T00:39:23.628Z,78.06
2019-02-21T00:41:52.087Z,77.94
2019-02-21T00:44:20.583Z,78.00
2019-02-21T00:46:49.054Z,78.06
2019-02-21T00:49:17.523Z,78.08
2019-02-21T00:51:46.040Z,77.96
2019-02-21T00:54:14.506Z,77.86
2019-02-21T00:56:42.966Z,78.15
2019-02-21T00:59:11.455Z,78.23
2019-02-21T01:01:39.911Z,78.29
2019-02-21T01:04:08.367Z,78.42
2019-02-21T01:06:38.000Z,78.50
2019-02-21T01:09:06.468Z,78.50
2019-02-21T01:11:34.935Z,78.55
2019-02-21T01:14:03.449Z,78.54
2019-02-21T01:16:31.898Z,78.55
2019-02-21T01:19:00.371Z,78.58
2019-02-21T01:21:28.880Z,78.38
2019-02-21T01:23:57.339Z,78.14
2019-02-21T01:26:25.804Z,78.09
2019-02-21T01:28:54.348Z,77.87
2019-02-21T01:31:22.816Z,77.73
2019-02-21T01:33:51.299Z,77.55
2019-02-21T01:36:19.807Z,77.53
2019-02-21T01:38:48.260Z,77.47
2019-02-21T01:41:16.809Z,77.53
2019-02-21T01:43:45.310Z,77.65
2019-02-21T01:46:13.785Z,77.75
2019-02-21T01:48:42.234Z,77.68
2019-02-21T01:51:10.746Z,77.63
2019-02-21T01:53:39.203Z,77.52
2019-02-21T01:56:07.663Z,77.41
2019-02-21T01:58:36.178Z,77.32
2019-02-21T02:01:08.538Z,77.20
2019-02-21T02:03:34.899Z,77.04
2019-02-21T02:06:03.415Z,76.81
2019-02-21T02:08:32.388Z,76.78
2019-02-21T02:11:00.849Z,76.70
2019-02-21T02:13:29.347Z,76.58
2019-02-21T02:15:57.813Z,76.63
2019-02-21T02:18:26.266Z,76.65
2019-02-21T02:20:54.766Z,76.79
2019-02-21T02:23:23.245Z,76.81
2019-02-21T02:25:51.694Z,76.73
2019-02-21T02:28:20.208Z,76.70
2019-02-21T02:30:48.669Z,76.69
2019-02-21T02:33:17.130Z,76.78
2019-02-21T02:35:45.659Z,76.82
2019-02-21T02:38:14.118Z,76.87
2019-02-21T02:40:42.598Z,76.87
2019-02-21T02:43:11.212Z,76.83
2019-02-21T02:45:39.658Z,76.83
2019-02-21T02:48:08.115Z,76.73
2019-02-21T02:50:36.632Z,76.79
2019-02-21T02:53:05.309Z,76.72
2019-02-21T02:55:33.778Z,76.73
2019-02-21T02:58:02.291Z,76.63
2019-02-21T03:00:30.756Z,76.55
2019-02-21T03:02:59.236Z,76.45
2019-02-21T03:05:27.744Z,76.46
2019-02-21T03:07:56.207Z,76.52
2019-02-21T03:10:25.737Z,76.44
2019-02-21T03:12:54.252Z,76.47
2019-02-21T03:15:22.720Z,76.33
2019-02-21T03:17:51.181Z,76.22
2019-02-21T03:20:19.691Z,76.19
2019-02-21T03:22:48.157Z,76.00
2019-02-21T03:25:16.620Z,75.92
2019-02-21T03:27:45.106Z,75.73
2019-02-21T03:30:13.708Z,75.69
2019-02-21T03:32:42.197Z,75.66
2019-02-21T03:35:10.795Z,75.63
2019-02-21T03:37:39.239Z,75.60
2019-02-21T03:40:09.594Z,75.63
2019-02-21T03:42:38.163Z,75.61
2019-02-21T03:45:09.850Z,75.64
2019-02-21T03:47:38.301Z,75.63
2019-02-21T03:50:09.759Z,75.69
2019-02-21T03:52:38.204Z,75.73
2019-02-21T03:55:08.111Z,75.60
2019-02-21T03:57:36.676Z,75.69
2019-02-21T04:00:07.868Z,75.69
2019-02-21T04:02:36.332Z,75.66
2019-02-21T04:05:06.174Z,75.66
2019-02-21T04:07:34.646Z,75.68
2019-02-21T04:10:03.994Z,75.74
2019-02-21T04:12:32.612Z,75.86
2019-02-21T04:15:01.079Z,76.10
2019-02-21T04:17:29.553Z,76.19
2019-02-21T04:19:58.053Z,76.39
2019-02-21T04:22:26.530Z,76.48
2019-02-21T04:24:54.986Z,76.67
2019-02-21T04:27:23.593Z,76.88
2019-02-21T04:29:52.058Z,77.15
2019-02-21T04:32:20.524Z,77.28
2019-02-21T04:34:49.021Z,77.42
2019-02-21T04:37:20.188Z,77.49
2019-02-21T04:39:48.641Z,77.69
2019-02-21T04:42:17.167Z,77.79
2019-02-21T04:44:45.618Z,77.96
2019-02-21T04:47:14.096Z,78.18
2019-02-21T04:49:42.577Z,78.47
2019-02-21T04:52:11.036Z,78.70
2019-02-21T04:54:39.500Z,78.99
2019-02-21T04:57:08.661Z,79.06
2019-02-21T04:59:39.441Z,79.44
2019-02-21T05:02:07.898Z,79.80
2019-02-21T05:04:36.409Z,80.09
2019-02-21T05:07:04.875Z,80.36
2019-02-21T05:09:33.348Z,80.76
2019-02-21T05:12:01.882Z,80.93
2019-02-21T05:14:30.606Z,81.10
2019-02-21T05:17:00.667Z,81.42
2019-02-21T05:19:29.353Z,81.59
2019-02-21T05:21:57.821Z,81.73
2019-02-21T05:24:26.292Z,81.89
2019-02-21T05:26:56.419Z,82.14
2019-02-21T05:29:24.896Z,82.27
2019-02-21T05:31:57.653Z,82.23
2019-02-21T05:34:43.034Z,82.62
2019-02-21T05:37:31.181Z,82.74
2019-02-21T05:40:10.043Z,82.87
2019-02-21T05:42:42.921Z,82.99
2019-02-21T05:45:15.501Z,83.09
2019-02-21T05:47:48.057Z,83.18
2019-02-21T05:50:30.057Z,83.22
2019-02-21T05:53:16.056Z,83.41
2019-02-21T05:56:02.325Z,83.36
2019-02-21T05:58:35.085Z,83.55
2019-02-21T06:01:07.932Z,83.40
2019-02-21T06:03:44.075Z,83.65
2019-02-21T06:06:17.124Z,83.77
2019-02-21T06:08:51.710Z,83.86
2019-02-21T06:11:21.829Z,83.87
2019-02-21T06:13:53.738Z,84.04
2019-02-21T06:16:33.130Z,84.20
2019-02-21T06:19:10.713Z,84.15
2019-02-21T06:21:47.854Z,84.08
2019-02-21T06:24:20.636Z,84.11
2019-02-21T06:26:50.789Z,84.11
2019-02-21T06:29:22.563Z,84.19
2019-02-21T06:31:51.221Z,84.39
2019-02-21T06:34:22.839Z,84.39
2019-02-21T06:36:51.385Z,84.47
2019-02-21T06:39:19.850Z,84.47
2019-02-21T06:41:58.699Z,84.57
2019-02-21T06:44:18.563Z,84.72
2019-02-21T06:46:47.042Z,84.97
2019-02-21T06:49:15.555Z,85.05
2019-02-21T06:51:44.033Z,85.13
2019-02-21T06:54:12.498Z,85.29
2019-02-21T06:56:41.054Z,85.39
2019-02-21T06:59:13.534Z,85.49
2019-02-21T07:01:40.796Z,85.52
2019-02-21T07:04:09.284Z,85.68
2019-02-21T07:06:39.294Z,85.72
2019-02-21T07:09:07.911Z,85.89
2019-02-21T07:11:36.405Z,85.91
2019-02-21T07:14:04.877Z,86.00
2019-02-21T07:16:33.329Z,86.11
2019-02-21T07:19:02.320Z,86.14
2019-02-21T07:21:30.799Z,86.21
2019-02-21T07:24:07.918Z,86.23
2019-02-21T07:26:36.419Z,86.35
2019-02-21T07:29:04.877Z,86.36
2019-02-21T07:31:33.332Z,86.28
2019-02-21T07:34:02.081Z,86.16
2019-02-21T07:36:30.548Z,86.09
2019-02-21T07:39:13.837Z,86.04
2019-02-21T07:41:29.221Z,85.99
2019-02-21T07:43:57.684Z,85.92
2019-02-21T07:46:26.417Z,86.01
2019-02-21T07:48:54.918Z,86.12
2019-02-21T07:51:23.379Z,86.21
2019-02-21T07:53:51.835Z,86.29
2019-02-21T07:56:20.337Z,86.29
2019-02-21T07:58:48.790Z,86.52
2019-02-21T08:01:17.662Z,86.51
2019-02-21T08:03:48.551Z,86.52
2019-02-21T08:06:16.431Z,86.63
2019-02-21T08:08:45.184Z,86.61
2019-02-21T08:11:13.761Z,86.79
2019-02-21T08:13:42.290Z,86.72
2019-02-21T08:16:12.475Z,86.70
2019-02-21T08:18:41.126Z,86.73
2019-02-21T08:21:10.697Z,86.78
2019-02-21T08:23:49.665Z,86.71
2019-02-21T08:26:09.441Z,86.57
2019-02-21T08:28:37.922Z,86.57
2019-02-21T08:31:06.449Z,86.63
2019-02-21T08:33:42.152Z,86.53
2019-02-21T08:36:10.613Z,86.55
2019-02-21T08:38:39.076Z,86.54
2019-02-21T08:41:07.576Z,86.43
2019-02-21T08:43:37.284Z,86.26
2019-02-21T08:46:05.909Z,86.01
2019-02-21T08:48:34.439Z,85.97
2019-02-21T08:51:02.940Z,85.79
2019-02-21T08:53:31.414Z,85.58
2019-02-21T08:56:00.056Z,85.49
2019-02-21T08:58:28.524Z,85.29
2019-02-21T09:00:57.008Z,85.46
2019-02-21T09:03:25.517Z,85.41
2019-02-21T09:05:53.969Z,85.17
2019-02-21T09:08:32.762Z,85.21
2019-02-21T09:10:52.658Z,85.11
2019-02-21T09:13:23.740Z,84.84
2019-02-21T09:15:51.512Z,84.65
2019-02-21T09:18:20.030Z,84.21
2019-02-21T09:20:48.491Z,84.18
2019-02-21T09:23:17.090Z,84.22
2019-02-21T09:25:45.584Z,83.99
2019-02-21T09:28:15.789Z,83.85
2019-02-21T09:30:44.231Z,83.76
2019-02-21T09:33:17.420Z,83.71
2019-02-21T09:35:42.908Z,83.47
2019-02-21T09:38:13.156Z,83.44
2019-02-21T09:40:42.799Z,83.53
2019-02-21T09:43:11.536Z,83.16
2019-02-21T09:45:42.190Z,83.16
2019-02-21T09:48:12.015Z,82.87
2019-02-21T09:50:40.388Z,82.88
2019-02-21T09:53:08.838Z,82.81
2019-02-21T09:55:37.395Z,82.57
2019-02-21T09:58:05.869Z,82.16
2019-02-21T10:00:35.961Z,81.81
2019-02-21T10:03:04.614Z,81.82
2019-02-21T10:05:33.072Z,81.91
2019-02-21T10:08:01.552Z,81.12
2019-02-21T10:10:30.053Z,80.55
2019-02-21T10:12:58.519Z,80.43
2019-02-21T10:15:26.992Z,80.21
2019-02-21T10:17:55.495Z,78.63
2019-02-21T10:20:23.965Z,78.40
2019-02-21T10:22:52.429Z,78.54
2019-02-21T10:25:24.974Z,77.47
2019-02-21T10:27:53.439Z,77.57
2019-02-21T10:30:23.360Z,77.42
2019-02-21T10:32:51.857Z,77.21
2019-02-21T10:35:20.398Z,76.97
2019-02-21T10:37:48.888Z,76.86
2019-02-21T10:40:17.989Z,76.58
2019-02-21T10:42:46.468Z,76.02
2019-02-21T10:45:16.762Z,75.76
2019-02-21T10:47:45.351Z,75.72
2019-02-21T10:50:17.001Z,76.30
2019-02-21T10:52:45.470Z,76.26
2019-02-21T10:55:14.159Z,74.78
2019-02-21T10:57:45.189Z,74.37
2019-02-21T11:00:18.690Z,73.19
2019-02-21T11:02:47.160Z,73.38
2019-02-21T11:05:15.645Z,73.43
2019-02-21T11:07:44.143Z,73.32
2019-02-21T11:10:19.219Z,72.74
2019-02-21T11:12:47.871Z,72.81
2019-02-21T11:15:21.368Z,72.89
2019-02-21T11:17:49.844Z,72.62
2019-02-21T11:20:19.248Z,72.40
2019-02-21T11:22:47.760Z,72.47
2019-02-21T11:25:16.215Z,73.03
2019-02-21T11:27:45.714Z,73.04
2019-02-21T11:30:16.529Z,72.94
2019-02-21T11:32:45.011Z,72.89
2019-02-21T11:35:13.951Z,72.72
2019-02-21T11:37:46.604Z,72.75
2019-02-21T11:40:17.156Z,72.79
2019-02-21T11:42:46.355Z,72.96
2019-02-21T11:45:18.360Z,72.58
2019-02-21T11:47:48.369Z,72.25
2019-02-21T11:50:18.289Z,72.35
2019-02-21T11:52:46.859Z,72.30
2019-02-21T11:55:23.615Z,72.11
2019-02-21T11:57:52.100Z,72.12
2019-02-21T12:00:23.280Z,72.35
2019-02-21T12:02:51.778Z,72.58
2019-02-21T12:05:30.370Z,72.66
2019-02-21T12:07:50.553Z,72.90
2019-02-21T12:10:19.093Z,73.06
2019-02-21T12:12:47.579Z,73.16
2019-02-21T12:15:16.707Z,73.07
2019-02-21T12:17:45.182Z,73.10
2019-02-21T12:20:15.434Z,73.13
2019-02-21T12:22:43.960Z,73.15
2019-02-21T12:25:17.422Z,73.48
2019-02-21T12:27:45.890Z,74.22
2019-02-21T12:30:17.365Z,74.91
2019-02-21T12:32:45.961Z,75.37
2019-02-21T12:35:14.598Z,75.98
2019-02-21T12:37:43.109Z,76.76
2019-02-21T12:40:14.295Z,77.32
2019-02-21T12:42:42.733Z,77.88
2019-02-21T12:45:16.740Z,78.08
2019-02-21T12:47:50.785Z,78.26
2019-02-21T12:50:15.542Z,78.47
2019-02-21T12:52:44.099Z,78.72
2019-02-21T12:55:12.760Z,79.28
2019-02-21T12:57:41.231Z,79.77
2019-02-21T13:00:12.510Z,80.28
2019-02-21T13:02:41.000Z,80.66
2019-02-21T13:05:09.480Z,81.13
2019-02-21T13:07:38.021Z,81.51
2019-02-21T13:10:12.095Z,81.86
2019-02-21T13:12:40.583Z,82.29
2019-02-21T13:15:11.528Z,82.49
2019-02-21T13:17:40.032Z,82.64
2019-02-21T13:20:11.288Z,82.99
2019-02-21T13:22:41.357Z,83.37
2019-02-21T13:25:15.165Z,83.56
2019-02-21T13:27:43.672Z,83.67
2019-02-21T13:30:16.733Z,83.81
2019-02-21T13:32:45.932Z,83.97
2019-02-21T13:35:14.554Z,83.94
2019-02-21T13:37:43.068Z,83.92
2019-02-21T13:40:14.480Z,84.00
2019-02-21T13:42:42.958Z,84.27
2019-02-21T13:45:13.498Z,84.47
2019-02-21T13:47:41.954Z,84.60
2019-02-21T13:50:13.235Z,84.55
2019-02-21T13:52:41.747Z,84.34
2019-02-21T13:55:10.305Z,84.43
2019-02-21T13:57:38.788Z,84.40
2019-02-21T14:00:10.557Z,84.35
2019-02-21T14:02:39.076Z,84.56
2019-02-21T14:05:07.810Z,84.67
2019-02-21T14:07:37.371Z,84.32
2019-02-21T14:10:11.296Z,84.44
2019-02-21T14:12:39.943Z,84.35
2019-02-21T14:15:11.629Z,84.30
2019-02-21T14:17:40.098Z,84.39
2019-02-21T14:20:09.244Z,84.35
2019-02-21T14:22:37.746Z,84.29
2019-02-21T14:25:08.960Z,84.32
2019-02-21T14:27:37.433Z,84.51
2019-02-21T14:30:09.071Z,84.47
2019-02-21T14:32:37.542Z,84.48
2019-02-21T14:35:09.158Z,84.57
2019-02-21T14:37:37.694Z,84.64
2019-02-21T14:40:09.099Z,84.83
2019-02-21T14:42:37.565Z,85.06
2019-02-21T14:45:12.152Z,85.43
2019-02-21T14:47:39.772Z,85.79
2019-02-21T14:50:10.477Z,85.87
2019-02-21T14:52:38.976Z,86.17
2019-02-21T14:55:13.737Z,86.51
2019-02-21T14:57:42.230Z,86.77
2019-02-21T15:00:19.259Z,87.06
2019-02-21T15:02:47.723Z,87.20
2019-02-21T15:05:16.187Z,87.31
2019-02-21T15:07:44.722Z,87.35
2019-02-21T15:10:13.357Z,87.47
2019-02-21T15:12:43.445Z,87.50
2019-02-21T15:15:27.702Z,87.52
2019-02-21T15:18:06.964Z,87.40
2019-02-21T15:20:36.282Z,87.40
2019-02-21T15:22:56.871Z,87.45
2019-02-21T15:25:25.907Z,87.45
2019-02-21T15:27:54.554Z,87.36
2019-02-21T15:30:25.998Z,87.41
2019-02-21T15:32:54.587Z,87.62
2019-02-21T15:35:23.058Z,87.35
2019-02-21T15:37:51.925Z,87.43
2019-02-21T15:40:20.488Z,87.59
2019-02-21T15:42:49.062Z,87.71
2019-02-21T15:45:26.502Z,87.73
2019-02-21T15:47:55.024Z,87.81
2019-02-21T15:50:26.222Z,87.94
2019-02-21T15:52:56.356Z,88.14
2019-02-21T15:55:24.824Z,88.37
2019-02-21T15:58:03.285Z,88.40
2019-02-21T16:00:24.567Z,88.42
2019-02-21T16:02:53.037Z,88.47
2019-02-21T16:05:21.500Z,88.51
2019-02-21T16:07:49.990Z,88.48
2019-02-21T16:10:21.646Z,88.28
2019-02-21T16:12:50.962Z,88.19
2019-02-21T16:15:19.749Z,88.17
2019-02-21T16:17:48.262Z,88.28
2019-02-21T16:20:18.333Z,88.19
2019-02-21T16:22:46.829Z,88.35
2019-02-21T16:25:18.068Z,88.33
2019-02-21T16:27:46.525Z,88.29
2019-02-21T16:30:15.307Z,88.51
2019-02-21T16:32:43.800Z,88.74
2019-02-21T16:35:13.899Z,88.56
2019-02-21T16:37:42.400Z,88.65
2019-02-21T16:40:17.076Z,88.84
2019-02-21T16:42:45.545Z,88.77
2019-02-21T16:45:15.972Z,88.87
2019-02-21T16:47:44.519Z,88.89
2019-02-21T16:50:14.324Z,88.97
2019-02-21T16:52:43.013Z,89.04
2019-02-21T16:55:19.345Z,89.09
2019-02-21T16:57:47.848Z,89.09
2019-02-21T17:00:20.428Z,89.10
2019-02-21T17:02:49.041Z,89.08
2019-02-21T17:05:17.646Z,89.10
2019-02-21T17:07:46.096Z,89.24
2019-02-21T17:10:15.814Z,89.38
2019-02-21T17:12:44.312Z,89.41
2019-02-21T17:15:14.899Z,89.33
2019-02-21T17:17:43.499Z,89.35
2019-02-21T17:20:17.360Z,89.23
2019-02-21T17:22:45.816Z,89.21
2019-02-21T17:25:15.421Z,89.41
2019-02-21T17:27:47.754Z,89.48
2019-02-21T17:30:17.355Z,89.60
2019-02-21T17:32:45.876Z,89.67
2019-02-21T17:35:14.798Z,89.89
2019-02-21T17:37:43.327Z,90.08
2019-02-21T17:40:14.749Z,90.16
2019-02-21T17:42:43.596Z,90.19
2019-02-21T17:45:13.384Z,90.35
2019-02-21T17:47:41.882Z,90.34
2019-02-21T17:50:12.422Z,90.40
2019-02-21T17:52:40.873Z,90.59
2019-02-21T17:55:10.899Z,90.65
2019-02-21T17:57:39.457Z,90.72
2019-02-21T18:00:11.099Z,90.86
2019-02-21T18:02:39.546Z,90.82
2019-02-21T18:05:09.689Z,90.93
2019-02-21T18:07:38.152Z,91.06
2019-02-21T18:10:10.046Z,91.04
2019-02-21T18:12:38.565Z,91.04
2019-02-21T18:15:09.200Z,91.01
2019-02-21T18:17:37.677Z,90.91
2019-02-21T18:20:08.812Z,91.04
2019-02-21T18:22:37.502Z,91.02
2019-02-21T18:25:11.995Z,90.99
2019-02-21T18:27:40.496Z,91.04
2019-02-21T18:30:16.794Z,90.94
2019-02-21T18:32:45.260Z,90.90
2019-02-21T18:35:13.857Z,91.11
2019-02-21T18:37:47.494Z,91.21
2019-02-21T18:40:20.633Z,91.02
2019-02-21T18:42:48.247Z,91.05
2019-02-21T18:45:17.722Z,91.22
2019-02-21T18:47:46.240Z,91.25
2019-02-21T18:50:15.167Z,91.31
2019-02-21T18:52:43.730Z,91.34
2019-02-21T18:55:12.419Z,91.44
2019-02-21T18:57:40.876Z,91.55
2019-02-21T19:00:14.765Z,91.59
2019-02-21T19:02:43.284Z,91.70
2019-02-21T19:05:11.730Z,91.71
2019-02-21T19:07:40.186Z,91.78
2019-02-21T19:10:20.772Z,92.01
2019-02-21T19:12:49.231Z,92.04
2019-02-21T19:15:21.391Z,92.14
2019-02-21T19:17:49.961Z,92.22
2019-02-21T19:20:20.392Z,92.29
2019-02-21T19:22:48.927Z,92.39
2019-02-21T19:25:17.427Z,92.39
2019-02-21T19:27:45.888Z,92.47
2019-02-21T19:30:17.527Z,92.52
2019-02-21T19:32:46.037Z,92.49
2019-02-21T19:35:14.509Z,92.52
2019-02-21T19:37:47.731Z,92.54
2019-02-21T19:40:16.419Z,92.50
2019-02-21T19:42:44.885Z,92.52
2019-02-21T19:45:13.341Z,92.51
2019-02-21T19:47:42.024Z,92.48
2019-02-21T19:50:10.564Z,92.54
2019-02-21T19:52:39.025Z,92.61
2019-02-21T19:55:09.680Z,92.62
2019-02-21T19:57:38.130Z,92.65
2019-02-21T20:00:16.415Z,92.64
2019-02-21T20:02:44.881Z,92.65
2019-02-21T20:05:13.338Z,92.68
2019-02-21T20:07:41.819Z,92.71
2019-02-21T20:10:10.343Z,92.72
2019-02-21T20:12:47.898Z,92.79
2019-02-21T20:15:16.511Z,92.83
2019-02-21T20:17:44.973Z,92.82
2019-02-21T20:20:21.872Z,92.82
2019-02-21T20:22:50.336Z,92.86
2019-02-21T20:25:18.799Z,92.82
2019-02-21T20:27:47.467Z,92.85
2019-02-21T20:30:17.191Z,92.85
2019-02-21T20:32:45.659Z,92.93
2019-02-21T20:35:14.168Z,92.93
2019-02-21T20:37:42.665Z,92.90
2019-02-21T20:40:12.272Z,92.99
2019-02-21T20:42:41.594Z,92.92
2019-02-21T20:45:13.924Z,92.83
2019-02-21T20:47:42.377Z,92.71
2019-02-21T20:50:12.476Z,92.59
2019-02-21T20:52:43.871Z,92.67
2019-02-21T20:55:12.520Z,92.72
2019-02-21T20:57:41.063Z,92.78
2019-02-21T21:00:14.872Z,92.71
2019-02-21T21:02:43.473Z,92.27
2019-02-21T21:05:12.060Z,92.27
2019-02-21T21:07:40.509Z,92.23
2019-02-21T21:10:16.911Z,92.11
2019-02-21T21:12:45.440Z,92.08
2019-02-21T21:15:14.747Z,92.05
2019-02-21T21:17:43.314Z,92.00
2019-02-21T21:20:16.979Z,92.07
2019-02-21T21:22:43.805Z,92.09
2019-02-21T21:25:15.806Z,92.16
2019-02-21T21:27:44.272Z,92.17
2019-02-21T21:30:17.667Z,92.24
2019-02-21T21:32:46.178Z,92.30
2019-02-21T21:35:14.654Z,92.39
2019-02-21T21:37:43.179Z,92.53
2019-02-21T21:40:14.503Z,92.69
2019-02-21T21:42:42.975Z,92.80
2019-02-21T21:45:14.369Z,92.73
2019-02-21T21:47:42.859Z,92.76
2019-02-21T21:50:13.966Z,92.76
2019-02-21T21:52:43.868Z,92.69
2019-02-21T21:55:12.360Z,92.61
2019-02-21T21:57:40.832Z,92.73
2019-02-21T22:00:17.895Z,92.67
2019-02-21T22:02:45.469Z,92.65
2019-02-21T22:05:13.927Z,92.63
2019-02-21T22:07:42.377Z,92.57
2019-02-21T22:10:12.715Z,92.50
2019-02-21T22:12:41.176Z,92.50
2019-02-21T22:15:12.739Z,92.53
2019-02-21T22:17:42.185Z,92.53
2019-02-21T22:20:10.944Z,92.50
2019-02-21T22:22:39.399Z,92.55
2019-02-21T22:25:10.440Z,92.49
2019-02-21T22:27:38.915Z,92.42
2019-02-21T22:30:16.462Z,92.52
2019-02-21T22:32:44.929Z,92.56
2019-02-21T22:35:13.390Z,92.78
2019-02-21T22:37:41.872Z,92.71
2019-02-21T22:40:12.766Z,92.67
2019-02-21T22:42:41.258Z,92.53
2019-02-21T22:45:10.377Z,92.47
2019-02-21T22:47:38.849Z,92.44
2019-02-21T22:50:19.091Z,92.32
2019-02-21T22:52:47.589Z,92.04
2019-02-21T22:55:16.394Z,91.99
2019-02-21T22:57:44.876Z,92.03
2019-02-21T23:00:54.392Z,92.07
2019-02-21T23:03:25.692Z,92.22
2019-02-21T23:06:12.669Z,91.95
2019-02-21T23:08:45.130Z,91.87
2019-02-21T23:11:13.749Z,91.76
2019-02-21T23:13:42.208Z,91.58
2019-02-21T23:16:10.698Z,91.66
2019-02-21T23:18:39.234Z,91.67
2019-02-21T23:21:07.698Z,91.76
2019-02-21T23:23:36.193Z,91.67
2019-02-21T23:26:04.658Z,91.88
2019-02-21T23:28:33.126Z,91.94
2019-02-21T23:31:01.620Z,92.13
2019-02-21T23:33:31.436Z,92.22
2019-02-21T23:36:00.076Z,92.14
2019-02-21T23:38:28.559Z,91.95
2019-02-21T23:40:57.031Z,91.97
2019-02-21T23:43:25.477Z,92.13
2019-02-21T23:45:53.991Z,92.07
2019-02-21T23:48:22.447Z,92.02
2019-02-21T23:50:50.919Z,92.07
2019-02-21T23:53:19.418Z,92.11
2019-02-21T23:55:48.050Z,92.13
2019-02-21T23:58:16.526Z,92.16
